Condado, Puerto Rico
Current Conditions -  °F | °C
As of 7:45 AM on Thursday 29 Jan 2015 (Local Time) from TJIG Reporting Station
Scattered Clouds Scattered Clouds  
Wind Chill: 75°   Ceiling: Unl
Heat Index: 75°   Visibility: 10mi
Dew Point: 70°   Wind: 0mph
Humidity: 83%   Direction: NA
Pressure: 30.04"   Gusts: NA
Location:  18.4559°N, 66.0777°W
Report Text: TJIG 291145Z 00000KT 10SM SCT050 24/21 A3004 RMK RY09 IN USE ATIS B
Loading
Personal Weather Stations






























Interactive Weather Map New forecast layout! Learn more

10-Day Weather Forecast

Advertisements
Track Severe Weather on mobile